Time;durP1;ratioP1;P1;durP2;ratioP2;P2;SDS_P1;SDS_P2;PMS_P1;PMS_P2;Temp;Humidity;BMP_temperature;BMP_pressure;BME280_temperature;BME280_humidity;BME280_pressure;Samples;Min_cycle;Max_cycle;Signal;HPM_P1;HPM_P2
2022/06/12 00:00:41;;;;;;;4.70;4.27;;;16.80;99.90;;;;;;5093864;28;20651;-82
2022/06/12 00:03:10;;;;;;;5.33;4.57;;;16.60;99.90;;;;;;5094313;28;20642;-81
2022/06/12 00:05:41;;;;;;;4.73;4.37;;;16.60;99.90;;;;;;5098745;28;20664;-81
2022/06/12 00:08:08;;;;;;;7.50;4.83;;;16.70;99.90;;;;;;5092290;28;21591;-81
2022/06/12 00:10:38;;;;;;;5.27;4.77;;;16.60;99.90;;;;;;5103996;28;20711;-81
2022/06/12 00:13:06;;;;;;;5.17;4.73;;;16.60;99.90;;;;;;5096841;28;20614;-82
2022/06/12 00:15:33;;;;;;;5.13;4.73;;;16.60;99.90;;;;;;5096331;28;20626;-80
2022/06/12 00:18:01;;;;;;;7.17;5.13;;;16.60;99.90;;;;;;5099040;28;20626;-81
2022/06/12 00:20:29;;;;;;;5.40;4.90;;;16.50;99.90;;;;;;5096153;28;20663;-82
2022/06/12 00:22:58;;;;;;;9.53;5.03;;;16.50;99.90;;;;;;5096702;28;20631;-81
2022/06/12 00:25:29;;;;;;;5.57;5.07;;;16.50;99.90;;;;;;5098924;28;21264;-81
2022/06/12 00:27:56;;;;;;;5.67;5.17;;;16.40;99.90;;;;;;5091734;28;20627;-81
2022/06/12 00:30:25;;;;;;;5.40;4.90;;;16.40;99.90;;;;;;5097293;28;20655;-82
2022/06/12 00:32:52;;;;;;;6.17;5.37;;;16.30;99.90;;;;;;5102521;28;20619;-82
2022/06/12 00:35:21;;;;;;;5.10;4.60;;;16.40;99.90;;;;;;5095800;28;20713;-82
2022/06/12 00:37:48;;;;;;;5.43;4.93;;;16.30;99.90;;;;;;5104308;28;20629;-82
2022/06/12 00:40:17;;;;;;;6.00;5.50;;;16.20;99.90;;;;;;5104459;28;20679;-82
2022/06/12 00:42:47;;;;;;;7.60;5.70;;;16.20;99.90;;;;;;5101225;28;20615;-82
2022/06/12 00:45:41;;;;;;;6.33;5.83;;;16.20;99.90;;;;;;5102043;28;20670;-82
2022/06/12 00:48:11;;;;;;;6.17;5.67;;;16.10;99.90;;;;;;5106137;28;20635;-82
2022/06/12 00:50:42;;;;;;;5.90;5.40;;;16.10;99.90;;;;;;5106991;28;21208;-82
2022/06/12 00:53:12;;;;;;;6.27;5.40;;;16.10;99.90;;;;;;5098848;28;20623;-81
2022/06/12 00:55:46;;;;;;;6.60;6.10;;;16.10;99.90;;;;;;5106297;28;20719;-81
2022/06/12 00:58:17;;;;;;;6.80;5.90;;;16.00;99.90;;;;;;5093101;28;20628;-81
2022/06/12 01:00:45;;;;;;;6.93;6.07;;;16.10;99.90;;;;;;5093591;28;21574;-81
2022/06/12 01:03:12;;;;;;;5.80;5.40;;;16.00;99.90;;;;;;5093334;28;20640;-83
2022/06/12 01:08:25;;;;;;;5.80;5.30;;;16.00;99.90;;;;;;5103474;28;20618;-82
2022/06/12 01:10:58;;;;;;;6.07;5.40;;;15.90;99.90;;;;;;5105706;28;20653;-82
2022/06/12 01:13:28;;;;;;;5.43;5.03;;;15.90;99.90;;;;;;5105098;28;20623;-82
2022/06/12 01:15:58;;;;;;;6.80;5.60;;;15.80;99.90;;;;;;5103677;28;20619;-82
2022/06/12 01:18:29;;;;;;;6.33;5.73;;;15.80;99.90;;;;;;5105559;28;21184;-81
2022/06/12 01:21:05;;;;;;;5.13;4.50;;;15.80;99.90;;;;;;5098122;28;20654;-81
2022/06/12 01:24:01;;;;;;;5.60;5.20;;;15.80;99.90;;;;;;5098256;28;20730;-82
2022/06/12 01:27:10;;;;;;;5.90;4.90;;;15.80;99.90;;;;;;5095508;28;20630;-82
2022/06/12 01:29:44;;;;;;;4.83;4.43;;;15.80;99.90;;;;;;5087469;28;20671;-82
2022/06/12 01:32:18;;;;;;;5.80;5.20;;;15.70;99.90;;;;;;5086888;28;20615;-81
2022/06/12 01:34:53;;;;;;;8.67;5.33;;;15.60;99.90;;;;;;5104820;28;21411;-81
2022/06/12 01:37:31;;;;;;;5.63;4.73;;;15.60;99.90;;;;;;5099747;28;20968;-81
2022/06/12 01:40:09;;;;;;;6.70;5.80;;;15.50;99.90;;;;;;5101375;28;20646;-82
2022/06/12 01:42:44;;;;;;;5.17;4.67;;;15.50;99.90;;;;;;5104630;28;20684;-81
2022/06/12 01:45:19;;;;;;;5.93;5.33;;;15.50;99.90;;;;;;5099129;28;20679;-81
2022/06/12 01:47:54;;;;;;;5.97;5.47;;;15.50;99.90;;;;;;5116036;27;20611;-81
2022/06/12 01:50:28;;;;;;;5.90;5.40;;;15.50;99.90;;;;;;5098531;28;20691;-81
2022/06/12 01:53:03;;;;;;;6.40;5.90;;;15.50;99.90;;;;;;5093997;28;20614;-81
2022/06/12 01:55:38;;;;;;;6.50;5.80;;;15.50;99.90;;;;;;5101286;28;20705;-82
2022/06/12 01:58:10;;;;;;;5.20;4.80;;;15.40;99.90;;;;;;5098932;28;20587;-82
2022/06/12 02:00:42;;;;;;;5.93;5.40;;;15.40;99.90;;;;;;5089314;28;20648;-82
2022/06/12 02:03:16;;;;;;;7.63;6.40;;;15.40;99.90;;;;;;5103026;28;20711;-82
2022/06/12 02:05:51;;;;;;;6.23;5.63;;;15.30;99.90;;;;;;5095842;28;20724;-81
2022/06/12 02:08:21;;;;;;;6.30;5.80;;;15.40;99.90;;;;;;5095172;28;20641;-81
2022/06/12 02:10:52;;;;;;;6.20;5.70;;;15.30;99.90;;;;;;5101725;28;20663;-82
2022/06/12 02:13:22;;;;;;;5.37;4.90;;;15.30;99.90;;;;;;5095503;28;20874;-81
2022/06/12 02:15:56;;;;;;;5.00;4.60;;;15.30;99.90;;;;;;5102354;28;20978;-82
2022/06/12 02:18:30;;;;;;;7.00;6.40;;;15.30;99.90;;;;;;5095613;28;20626;-82
2022/06/12 02:21:04;;;;;;;6.50;5.90;;;15.30;99.90;;;;;;5095627;28;21221;-82
2022/06/12 02:23:38;;;;;;;6.93;6.33;;;15.30;99.90;;;;;;5099867;28;20639;-83
2022/06/12 02:26:06;;;;;;;6.57;5.90;;;15.30;99.90;;;;;;5102027;28;20659;-83
2022/06/12 02:28:39;;;;;;;6.20;5.70;;;15.30;99.90;;;;;;5104022;28;21064;-82
2022/06/12 02:31:15;;;;;;;6.33;5.80;;;15.20;99.90;;;;;;5100254;28;20662;-83
2022/06/12 02:33:48;;;;;;;5.63;5.13;;;15.20;99.90;;;;;;5096972;28;20612;-82
2022/06/12 02:36:19;;;;;;;6.63;6.03;;;15.20;99.90;;;;;;5102336;28;20646;-81
2022/06/12 02:38:51;;;;;;;5.37;4.87;;;15.10;99.90;;;;;;5095579;28;20628;-82
2022/06/12 02:41:24;;;;;;;6.27;5.77;;;15.10;99.90;;;;;;5103879;28;20752;-82
2022/06/12 02:43:55;;;;;;;5.83;5.43;;;15.00;99.90;;;;;;5104771;28;20619;-82
2022/06/12 02:46:31;;;;;;;6.07;5.57;;;15.00;99.90;;;;;;5102864;28;20696;-82
2022/06/12 02:48:58;;;;;;;6.20;5.60;;;15.00;99.90;;;;;;5101849;28;20618;-82
2022/06/12 02:51:35;;;;;;;5.30;4.90;;;15.00;99.90;;;;;;5103992;28;20722;-82
2022/06/12 02:54:10;;;;;;;5.97;4.73;;;14.90;99.90;;;;;;5101752;28;21195;-82
2022/06/12 02:56:44;;;;;;;5.77;5.20;;;14.90;99.90;;;;;;5099519;28;20615;-82
2022/06/12 02:59:25;;;;;;;5.10;4.80;;;14.90;99.90;;;;;;5095524;28;20652;-82
2022/06/12 03:02:05;;;;;;;5.77;5.27;;;14.90;99.90;;;;;;5102127;28;21234;-82
2022/06/12 03:04:39;;;;;;;5.57;4.40;;;14.90;99.90;;;;;;5100137;28;20638;-82
2022/06/12 03:07:06;;;;;;;6.53;5.23;;;14.90;99.90;;;;;;5100284;28;20599;-82
2022/06/12 03:09:33;;;;;;;6.53;5.27;;;14.80;99.90;;;;;;5089390;28;20770;-82
2022/06/12 03:12:00;;;;;;;5.70;5.20;;;14.80;99.90;;;;;;5098246;28;20989;-81
2022/06/12 03:14:27;;;;;;;5.87;5.37;;;14.80;99.90;;;;;;5097867;28;21655;-81
2022/06/12 03:16:55;;;;;;;6.10;4.93;;;14.70;99.90;;;;;;5098068;28;20623;-82
2022/06/12 03:19:26;;;;;;;6.07;5.50;;;14.80;99.90;;;;;;5096974;28;20632;-82
2022/06/12 03:22:02;;;;;;;6.50;6.00;;;14.80;99.90;;;;;;5104101;28;20615;-82
2022/06/12 03:24:41;;;;;;;6.90;5.00;;;14.80;99.90;;;;;;5098170;28;20627;-82
2022/06/12 03:27:19;;;;;;;7.47;6.10;;;14.70;99.90;;;;;;5101282;28;20650;-82
2022/06/12 03:29:55;;;;;;;5.57;5.10;;;14.70;99.90;;;;;;5087130;28;21164;-82
2022/06/12 03:32:30;;;;;;;6.17;5.20;;;14.70;99.90;;;;;;5097250;28;20622;-82
2022/06/12 03:35:07;;;;;;;5.50;5.00;;;14.70;99.90;;;;;;5100338;28;21112;-82
2022/06/12 03:37:39;;;;;;;6.60;6.00;;;14.70;99.90;;;;;;5095909;28;20614;-82
2022/06/12 03:40:11;;;;;;;5.47;5.07;;;14.60;99.90;;;;;;5091173;28;20662;-81
2022/06/12 03:42:49;;;;;;;6.10;5.70;;;14.60;99.90;;;;;;5093321;28;20623;-82
2022/06/12 03:45:21;;;;;;;6.40;6.00;;;14.60;99.90;;;;;;5092061;28;21040;-82
2022/06/12 03:47:55;;;;;;;6.33;5.80;;;14.60;99.90;;;;;;5099318;28;20973;-82
2022/06/12 03:50:29;;;;;;;6.43;6.03;;;14.60;99.90;;;;;;5101290;28;21260;-81
2022/06/12 03:53:02;;;;;;;6.87;6.20;;;14.60;99.90;;;;;;5097055;28;20623;-82
2022/06/12 03:58:21;;;;;;;5.97;5.57;;;14.60;99.90;;;;;;5092493;28;20578;-82
2022/06/12 04:00:51;;;;;;;6.20;5.60;;;14.70;99.90;;;;;;5101591;28;20654;-82
2022/06/12 04:03:26;;;;;;;6.40;5.87;;;14.70;99.90;;;;;;5102639;28;20630;-83
2022/06/12 04:05:57;;;;;;;6.47;6.00;;;14.70;99.90;;;;;;5102168;28;20665;-82
2022/06/12 04:08:26;;;;;;;6.20;5.70;;;14.70;99.90;;;;;;5100108;28;20721;-82
2022/06/12 04:10:54;;;;;;;6.50;5.90;;;14.70;99.90;;;;;;5099411;28;20651;-82
2022/06/12 04:13:23;;;;;;;6.60;5.90;;;14.80;99.90;;;;;;5100933;28;20627;-83
2022/06/12 04:15:56;;;;;;;7.50;6.80;;;14.70;99.90;;;;;;5105333;28;20629;-82
2022/06/12 04:18:26;;;;;;;6.53;6.03;;;14.80;99.90;;;;;;5107501;28;21276;-82
2022/06/12 04:20:57;;;;;;;7.07;6.47;;;14.80;99.90;;;;;;5098911;28;20658;-82
2022/06/12 04:23:33;;;;;;;6.47;5.97;;;14.80;99.90;;;;;;5105237;28;20646;-82
2022/06/12 04:26:07;;;;;;;7.07;6.57;;;14.80;99.90;;;;;;5101163;28;21338;-82
2022/06/12 04:28:36;;;;;;;6.90;6.30;;;14.90;99.90;;;;;;5103456;28;20645;-81
2022/06/12 04:31:07;;;;;;;5.93;5.43;;;14.90;99.90;;;;;;5102941;28;20635;-82
2022/06/12 04:33:49;;;;;;;6.37;5.87;;;14.90;99.90;;;;;;5098405;28;20638;-82
2022/06/12 04:36:16;;;;;;;6.87;5.43;;;14.90;99.90;;;;;;5097655;28;20622;-82
2022/06/12 04:38:43;;;;;;;7.27;6.07;;;15.00;99.90;;;;;;5102615;28;21108;-82
2022/06/12 04:41:12;;;;;;;6.40;5.90;;;15.10;99.90;;;;;;5101523;28;20651;-82
2022/06/12 04:43:39;;;;;;;6.67;6.07;;;15.00;99.90;;;;;;5101060;28;20633;-82
2022/06/12 04:46:06;;;;;;;7.30;6.47;;;15.10;99.90;;;;;;5103683;28;20655;-82
2022/06/12 04:48:38;;;;;;;7.60;6.83;;;15.20;99.90;;;;;;5096614;28;20631;-82
2022/06/12 04:51:08;;;;;;;6.63;6.00;;;15.30;99.90;;;;;;5099989;28;20646;-82
2022/06/12 04:53:35;;;;;;;7.13;6.43;;;15.30;99.90;;;;;;5102737;28;20638;-82
2022/06/12 04:56:02;;;;;;;6.20;5.70;;;15.40;99.90;;;;;;5104566;28;20740;-82
2022/06/12 04:58:29;;;;;;;7.10;6.40;;;15.40;99.90;;;;;;5101962;28;21006;-82
2022/06/12 05:00:56;;;;;;;6.50;6.00;;;15.30;99.90;;;;;;5103834;28;20735;-82
2022/06/12 05:03:23;;;;;;;6.33;5.83;;;15.40;99.90;;;;;;5101725;28;20632;-82
2022/06/12 05:05:50;;;;;;;6.03;5.60;;;15.50;99.90;;;;;;5111636;28;20659;-82
2022/06/12 05:08:19;;;;;;;6.17;5.73;;;15.60;99.90;;;;;;5102459;28;20639;-82
2022/06/12 05:10:46;;;;;;;8.63;6.30;;;15.60;99.90;;;;;;5097358;28;20655;-82
2022/06/12 05:13:13;;;;;;;6.07;5.57;;;15.70;99.90;;;;;;5099665;28;20631;-82
2022/06/12 05:15:40;;;;;;;6.70;6.10;;;15.80;99.90;;;;;;5095520;28;20691;-83
2022/06/12 05:18:08;;;;;;;5.77;5.37;;;15.90;99.90;;;;;;5089524;28;20624;-82
2022/06/12 05:20:37;;;;;;;6.40;5.83;;;16.00;99.90;;;;;;5098538;28;20699;-82
2022/06/12 05:23:04;;;;;;;6.57;5.70;;;16.20;99.90;;;;;;5102353;28;21980;-82
2022/06/12 05:25:33;;;;;;;5.80;5.30;;;16.30;99.90;;;;;;5099609;28;21067;-82
2022/06/12 05:28:03;;;;;;;6.57;6.13;;;16.40;99.90;;;;;;5097208;28;20632;-82
2022/06/12 05:30:32;;;;;;;6.13;5.60;;;16.40;99.90;;;;;;5093120;28;20758;-83
2022/06/12 05:33:01;;;;;;;7.20;6.00;;;16.50;99.90;;;;;;5098223;28;20624;-82
2022/06/12 05:35:29;;;;;;;7.03;6.40;;;16.50;99.90;;;;;;5103050;28;20727;-82
2022/06/12 05:37:58;;;;;;;7.43;6.73;;;16.60;99.90;;;;;;5096789;28;20634;-82
2022/06/12 05:40:28;;;;;;;5.97;5.47;;;16.60;99.90;;;;;;5098284;28;20683;-82
2022/06/12 05:42:57;;;;;;;7.00;6.30;;;16.80;99.90;;;;;;5098294;28;20754;-82
2022/06/12 05:45:26;;;;;;;8.67;6.20;;;16.80;99.90;;;;;;5093242;28;20996;-82
2022/06/12 05:47:57;;;;;;;6.27;5.73;;;17.00;99.90;;;;;;5105585;28;20615;-82
2022/06/12 05:50:27;;;;;;;5.90;5.30;;;17.20;99.90;;;;;;5106765;28;20635;-82
2022/06/12 05:52:56;;;;;;;5.83;5.33;;;17.30;99.90;;;;;;5099034;28;20633;-82
2022/06/12 05:55:23;;;;;;;5.90;5.33;;;17.50;99.90;;;;;;5103452;28;20639;-82
2022/06/12 05:57:50;;;;;;;6.47;5.87;;;17.60;99.90;;;;;;5100860;28;20619;-82
2022/06/12 06:00:22;;;;;;;6.37;5.30;;;17.70;99.90;;;;;;5091227;28;20631;-82
2022/06/12 06:02:49;;;;;;;6.97;5.80;;;17.80;99.90;;;;;;5096314;28;20619;-82
2022/06/12 06:05:16;;;;;;;6.37;5.87;;;17.90;99.90;;;;;;5102220;28;20714;-82
2022/06/12 06:07:43;;;;;;;5.33;4.70;;;18.00;99.90;;;;;;5099099;28;20668;-82
2022/06/12 06:10:13;;;;;;;5.57;5.17;;;18.10;99.90;;;;;;5100396;28;20661;-82
2022/06/12 06:12:40;;;;;;;5.50;5.00;;;18.20;99.90;;;;;;5094201;28;21189;-82
2022/06/12 06:15:10;;;;;;;5.73;5.30;;;18.30;99.90;;;;;;5105871;28;20623;-82
2022/06/12 06:17:39;;;;;;;5.60;5.20;;;18.30;99.90;;;;;;5101390;28;20667;-82
2022/06/12 06:20:07;;;;;;;6.30;5.73;;;18.40;99.90;;;;;;5100281;28;21331;-82
2022/06/12 06:22:34;;;;;;;5.60;5.20;;;18.50;99.90;;;;;;5098412;28;20632;-82
2022/06/12 06:25:01;;;;;;;5.87;5.30;;;18.60;99.90;;;;;;5105144;28;20627;-82
2022/06/12 06:27:27;;;;;;;6.90;5.00;;;18.80;99.90;;;;;;5098001;28;20670;-82
2022/06/12 06:29:54;;;;;;;5.27;4.73;;;18.80;99.90;;;;;;5101049;28;21006;-82
2022/06/12 06:32:21;;;;;;;5.30;4.80;;;18.70;99.90;;;;;;5097438;28;20624;-81
2022/06/12 06:34:49;;;;;;;5.07;4.53;;;18.90;99.90;;;;;;5102761;28;20627;-82
2022/06/12 06:37:17;;;;;;;5.70;5.30;;;19.00;99.90;;;;;;5099987;28;20631;-82
2022/06/12 06:39:44;;;;;;;4.83;4.30;;;19.00;99.90;;;;;;5096488;28;20749;-82
2022/06/12 06:42:11;;;;;;;5.53;5.03;;;19.20;99.90;;;;;;5100202;28;20623;-82
2022/06/12 06:47:23;;;;;;;5.80;5.30;;;19.30;99.90;;;;;;5101314;28;20654;-82
2022/06/12 06:49:51;;;;;;;5.47;4.97;;;19.50;99.90;;;;;;5102206;28;20654;-81
2022/06/12 06:52:18;;;;;;;6.63;5.13;;;19.60;99.90;;;;;;5100741;28;20769;-82
2022/06/12 06:54:45;;;;;;;6.20;5.20;;;19.80;99.90;;;;;;5102203;28;20634;-82
2022/06/12 06:57:12;;;;;;;6.33;5.20;;;19.90;99.90;;;;;;5105286;28;21254;-82
2022/06/12 06:59:39;;;;;;;5.47;5.07;;;20.00;99.90;;;;;;5097605;28;20738;-82
2022/06/12 07:02:07;;;;;;;5.30;4.80;;;20.10;99.90;;;;;;5098756;28;20635;-82
2022/06/12 07:04:37;;;;;;;5.20;4.80;;;20.20;99.90;;;;;;5098351;28;21185;-82
2022/06/12 07:07:06;;;;;;;4.47;4.20;;;20.20;99.90;;;;;;5102568;28;20705;-82
2022/06/12 07:09:33;;;;;;;4.87;4.47;;;20.30;99.90;;;;;;5101121;28;20787;-83
2022/06/12 07:12:00;;;;;;;4.80;4.40;;;20.50;99.90;;;;;;5101140;28;20623;-82
2022/06/12 07:14:28;;;;;;;6.43;4.20;;;20.60;99.90;;;;;;5097827;28;20627;-83
2022/06/12 07:16:56;;;;;;;4.00;3.70;;;20.70;99.90;;;;;;5091987;28;20986;-82
2022/06/12 07:19:23;;;;;;;8.00;4.70;;;20.80;99.90;;;;;;5091107;28;20623;-81
2022/06/12 07:21:50;;;;;;;4.90;4.50;;;21.00;99.90;;;;;;5101602;28;20623;-82
2022/06/12 07:24:18;;;;;;;4.63;3.80;;;21.10;99.90;;;;;;5097825;28;20634;-82
2022/06/12 07:26:47;;;;;;;4.90;4.50;;;21.10;99.90;;;;;;5092212;28;20988;-82
2022/06/12 07:29:14;;;;;;;4.63;4.33;;;21.30;99.90;;;;;;5092327;28;20641;-82
2022/06/12 07:31:42;;;;;;;5.40;3.90;;;21.40;99.90;;;;;;5092768;28;20635;-82
2022/06/12 07:34:11;;;;;;;5.57;4.07;;;21.50;99.90;;;;;;5097848;28;20607;-82
2022/06/12 07:36:39;;;;;;;3.63;3.30;;;21.70;99.90;;;;;;5101298;28;20619;-82
2022/06/12 07:39:08;;;;;;;6.37;4.70;;;21.80;99.90;;;;;;5101461;28;20629;-82
2022/06/12 07:41:37;;;;;;;4.37;3.77;;;22.00;99.90;;;;;;5096895;28;20640;-82
2022/06/12 07:44:04;;;;;;;4.20;3.90;;;22.10;99.90;;;;;;5105211;28;21059;-82
2022/06/12 07:46:31;;;;;;;4.13;3.63;;;22.30;99.90;;;;;;5100094;28;20666;-82
2022/06/12 07:48:58;;;;;;;4.00;3.60;;;22.40;99.90;;;;;;5083403;28;20821;-82
2022/06/12 07:51:26;;;;;;;3.90;3.50;;;22.50;99.90;;;;;;5100245;28;20753;-82
2022/06/12 07:53:53;;;;;;;4.10;3.57;;;22.50;99.90;;;;;;5100120;28;20628;-82
2022/06/12 07:56:23;;;;;;;4.23;3.07;;;22.60;99.90;;;;;;5099999;28;20631;-82
2022/06/12 07:58:51;;;;;;;5.00;3.73;;;22.70;99.90;;;;;;5096108;28;20634;-82
2022/06/12 08:01:21;;;;;;;3.10;2.90;;;22.90;99.90;;;;;;5097941;28;20655;-82
2022/06/12 08:03:48;;;;;;;3.67;2.93;;;23.00;99.90;;;;;;5093578;28;21103;-82
2022/06/12 08:06:15;;;;;;;3.90;3.60;;;23.20;99.90;;;;;;5088024;28;20628;-82
2022/06/12 08:08:42;;;;;;;3.80;3.50;;;23.30;99.90;;;;;;5099979;28;20635;-82
2022/06/12 08:11:09;;;;;;;4.47;3.40;;;23.50;99.90;;;;;;5099707;28;20663;-82
2022/06/12 08:13:36;;;;;;;4.17;3.27;;;23.60;99.90;;;;;;5100798;28;20619;-82
2022/06/12 08:16:06;;;;;;;3.37;3.00;;;23.70;99.90;;;;;;5099733;28;20624;-82
2022/06/12 08:18:32;;;;;;;3.60;3.30;;;23.90;99.90;;;;;;5098304;28;20633;-82
2022/06/12 08:21:04;;;;;;;4.37;3.03;;;24.00;99.90;;;;;;5097019;28;21423;-82
2022/06/12 08:23:34;;;;;;;8.40;3.20;;;24.10;99.90;;;;;;5101181;28;20670;-82
2022/06/12 08:26:03;;;;;;;5.13;2.77;;;24.20;99.90;;;;;;5095909;28;20635;-81
2022/06/12 08:28:35;;;;;;;3.13;2.87;;;24.20;98.80;;;;;;5100272;28;20665;-81
2022/06/12 08:31:04;;;;;;;3.43;2.67;;;24.30;98.50;;;;;;5103865;28;20652;-82
2022/06/12 08:33:32;;;;;;;3.97;3.63;;;24.30;99.90;;;;;;5098517;28;20642;-82
2022/06/12 08:35:59;;;;;;;3.23;2.93;;;24.50;99.90;;;;;;5101169;28;20630;-82
2022/06/12 08:38:26;;;;;;;5.93;4.70;;;24.70;99.90;;;;;;5099697;28;20615;-82
2022/06/12 08:41:00;;;;;;;2.90;2.57;;;24.80;99.90;;;;;;5100668;28;20707;-82
2022/06/12 08:43:36;;;;;;;4.03;3.63;;;25.00;99.90;;;;;;5102612;28;20626;-82
2022/06/12 08:46:10;;;;;;;3.17;2.90;;;25.10;99.90;;;;;;5100174;28;20607;-82
2022/06/12 08:48:47;;;;;;;3.30;3.10;;;25.20;99.90;;;;;;5095008;28;20646;-82
2022/06/12 08:51:25;;;;;;;5.10;3.80;;;25.30;99.90;;;;;;5092501;28;20674;-82
2022/06/12 08:53:57;;;;;;;3.23;2.93;;;25.40;99.90;;;;;;5097352;28;20622;-82
2022/06/12 08:56:29;;;;;;;4.00;3.60;;;25.40;98.80;;;;;;5099683;28;20622;-82
2022/06/12 08:59:02;;;;;;;3.77;3.47;;;25.40;99.80;;;;;;5096640;28;20622;-82
2022/06/12 09:01:31;;;;;;;6.03;3.73;;;25.50;99.00;;;;;;5084015;28;20656;-81
2022/06/12 09:03:57;;;;;;;3.77;3.10;;;25.50;99.40;;;;;;5099175;28;20623;-82
2022/06/12 09:06:37;;;;;;;3.30;3.10;;;25.50;99.90;;;;;;5102927;28;20628;-82
2022/06/12 09:09:11;;;;;;;4.53;3.13;;;25.60;99.40;;;;;;5104772;28;20630;-82
2022/06/12 09:11:46;;;;;;;3.73;2.70;;;25.60;99.70;;;;;;5107306;28;20599;-82
2022/06/12 09:14:26;;;;;;;3.73;2.83;;;25.70;99.10;;;;;;5098151;28;21046;-82
2022/06/12 09:17:00;;;;;;;3.40;3.10;;;25.80;99.10;;;;;;5103336;28;20703;-82
2022/06/12 09:19:33;;;;;;;3.40;3.10;;;25.90;99.70;;;;;;5101437;28;20716;-82
2022/06/12 09:22:12;;;;;;;4.37;3.90;;;26.10;98.20;;;;;;5087786;28;20630;-82
2022/06/12 09:24:46;;;;;;;3.77;3.47;;;26.30;99.90;;;;;;5099169;28;20664;-82
2022/06/12 09:27:23;;;;;;;3.13;2.83;;;26.50;98.40;;;;;;5098329;28;20998;-82
2022/06/12 09:29:58;;;;;;;4.10;3.40;;;26.60;96.90;;;;;;5090725;28;20658;-82
2022/06/12 09:32:37;;;;;;;5.13;3.20;;;26.40;96.80;;;;;;5096854;28;21367;-83
2022/06/12 09:35:17;;;;;;;4.30;3.00;;;26.60;99.00;;;;;;5104490;28;20725;-82
2022/06/12 09:40:49;;;;;;;4.03;3.70;;;26.80;96.40;;;;;;5098159;28;20633;-82
2022/06/12 09:43:25;;;;;;;3.80;3.50;;;26.90;96.80;;;;;;5102672;28;20836;-81
2022/06/12 09:46:01;;;;;;;3.33;3.03;;;27.00;93.90;;;;;;5102399;28;20679;-82
2022/06/12 09:48:43;;;;;;;4.47;3.80;;;26.90;93.20;;;;;;5102942;28;20628;-81
2022/06/12 09:51:21;;;;;;;3.67;3.23;;;27.00;93.40;;;;;;5112286;28;20646;-82
2022/06/12 09:54:10;;;;;;;3.20;3.00;;;27.10;93.80;;;;;;5107297;28;20607;-82
2022/06/12 09:56:42;;;;;;;5.67;3.63;;;27.20;93.90;;;;;;5099177;28;20636;-82
2022/06/12 09:59:14;;;;;;;3.43;2.77;;;27.30;92.00;;;;;;5096752;28;20676;-81
2022/06/12 10:01:45;;;;;;;4.53;3.30;;;27.50;93.30;;;;;;5098025;28;20626;-81
2022/06/12 10:04:20;;;;;;;5.27;3.27;;;27.50;91.30;;;;;;5100627;28;20615;-82
2022/06/12 10:06:51;;;;;;;4.90;3.40;;;27.50;91.70;;;;;;5103247;28;20614;-81
2022/06/12 10:09:24;;;;;;;4.93;2.87;;;27.50;91.40;;;;;;5105759;28;20645;-82
2022/06/12 10:11:56;;;;;;;3.70;2.63;;;27.40;85.90;;;;;;5100306;28;21283;-82
2022/06/12 10:14:27;;;;;;;2.77;2.57;;;27.40;85.70;;;;;;5100132;28;20644;-81
2022/06/12 10:16:59;;;;;;;3.43;2.90;;;27.40;85.40;;;;;;5101010;28;21126;-81
2022/06/12 10:19:31;;;;;;;4.13;2.60;;;27.50;83.90;;;;;;5100283;28;20666;-82
2022/06/12 10:22:04;;;;;;;3.07;2.87;;;27.50;84.90;;;;;;5100359;28;20623;-82
2022/06/12 10:24:31;;;;;;;2.93;2.50;;;27.50;85.70;;;;;;5106550;28;20634;-82
2022/06/12 10:27:00;;;;;;;3.93;3.10;;;27.60;82.60;;;;;;5099771;28;20630;-81
2022/06/12 10:29:40;;;;;;;2.87;2.63;;;27.60;80.80;;;;;;5104381;28;20638;-82
2022/06/12 10:32:14;;;;;;;2.57;2.47;;;27.60;82.40;;;;;;5097582;28;20621;-82
2022/06/12 10:34:42;;;;;;;5.40;3.10;;;27.70;84.10;;;;;;5096116;28;20616;-81
2022/06/12 10:37:11;;;;;;;3.17;2.60;;;27.80;82.60;;;;;;5103128;28;20638;-82
2022/06/12 10:39:40;;;;;;;3.03;2.73;;;27.90;76.40;;;;;;5102683;28;20643;-82
2022/06/12 10:42:08;;;;;;;3.83;3.53;;;28.10;77.00;;;;;;5101347;28;21188;-81
2022/06/12 10:44:38;;;;;;;3.00;2.80;;;28.20;78.80;;;;;;5102910;28;20631;-82
2022/06/12 10:47:14;;;;;;;3.37;3.07;;;28.40;77.50;;;;;;5096867;28;20626;-81
2022/06/12 10:49:42;;;;;;;3.93;2.80;;;28.60;76.40;;;;;;5095456;28;20643;-81
2022/06/12 10:52:16;;;;;;;3.00;2.80;;;28.90;76.20;;;;;;5092679;28;20643;-81
2022/06/12 10:54:43;;;;;;;6.30;2.80;;;29.00;74.50;;;;;;5094705;28;20607;-81
2022/06/12 10:57:24;;;;;;;4.70;3.00;;;29.30;75.30;;;;;;5089914;28;21108;-81
2022/06/12 10:59:58;;;;;;;3.43;2.87;;;29.60;75.80;;;;;;5097187;28;20648;-82
2022/06/12 11:02:52;;;;;;;5.27;2.90;;;29.90;72.00;;;;;;5096431;28;20966;-81
2022/06/12 11:05:47;;;;;;;4.53;3.13;;;30.20;69.20;;;;;;5098709;28;20665;-82
2022/06/12 11:08:29;;;;;;;2.30;1.70;;;30.50;69.30;;;;;;5099096;28;20663;-81
2022/06/12 11:11:03;;;;;;;3.07;2.40;;;30.60;60.60;;;;;;5099420;28;20646;-82
2022/06/12 11:13:53;;;;;;;2.93;2.73;;;30.90;61.50;;;;;;5102321;28;20944;-82
2022/06/12 11:16:33;;;;;;;2.90;2.60;;;31.20;63.30;;;;;;5089961;28;20631;-81
2022/06/12 11:19:13;;;;;;;2.20;2.10;;;31.60;64.00;;;;;;5092945;28;20623;-81
2022/06/12 11:21:54;;;;;;;2.63;2.43;;;31.80;63.10;;;;;;5096691;28;20857;-81
2022/06/12 11:24:25;;;;;;;4.50;2.40;;;32.20;61.90;;;;;;5091124;28;20631;-81
2022/06/12 11:27:21;;;;;;;3.43;3.20;;;32.40;59.80;;;;;;5096829;28;20637;-81
2022/06/12 11:30:03;;;;;;;2.67;2.47;;;32.60;57.30;;;;;;5097823;28;20642;-81
2022/06/12 11:32:48;;;;;;;3.27;2.97;;;32.70;57.80;;;;;;5097167;28;20634;-81
2022/06/12 11:35:27;;;;;;;3.97;2.57;;;33.00;57.70;;;;;;5093893;28;20962;-81
2022/06/12 11:38:11;;;;;;;4.37;3.10;;;33.30;56.90;;;;;;5098771;28;20974;-81
2022/06/12 11:40:44;;;;;;;5.47;2.63;;;33.50;56.00;;;;;;5102055;28;20646;-81
2022/06/12 11:43:19;;;;;;;3.10;2.60;;;33.70;53.60;;;;;;5094935;28;20620;-80
2022/06/12 11:46:00;;;;;;;2.83;2.57;;;34.00;53.00;;;;;;5096443;28;20735;-80
2022/06/12 11:48:41;;;;;;;2.43;2.30;;;34.20;53.40;;;;;;5097274;28;20659;-80
2022/06/12 11:51:14;;;;;;;2.67;2.47;;;34.50;52.40;;;;;;5101565;28;20647;-82
2022/06/12 11:53:56;;;;;;;3.93;2.60;;;34.70;51.70;;;;;;5098664;28;20615;-82
2022/06/12 11:56:34;;;;;;;2.47;2.27;;;34.90;50.10;;;;;;5084758;28;20725;-80
2022/06/12 11:59:20;;;;;;;2.47;2.27;;;35.10;50.60;;;;;;5100751;28;20607;-80
2022/06/12 12:01:56;;;;;;;2.90;2.70;;;35.40;49.90;;;;;;5097424;28;20615;-82
2022/06/12 12:04:43;;;;;;;2.60;1.83;;;35.60;49.50;;;;;;5097067;28;20204;-79
2022/06/12 12:07:27;;;;;;;2.90;2.37;;;35.90;49.00;;;;;;5092616;28;20607;-80
2022/06/12 12:10:13;;;;;;;2.77;2.00;;;36.10;47.60;;;;;;5097871;28;20290;-81
2022/06/12 12:12:44;;;;;;;6.10;3.10;;;36.20;46.90;;;;;;5091654;28;20686;-81
2022/06/12 12:15:18;;;;;;;3.73;2.77;;;36.10;45.30;;;;;;5095939;28;20193;-81
2022/06/12 12:17:47;;;;;;;2.70;2.50;;;36.20;46.50;;;;;;5096656;28;20257;-81
2022/06/12 12:20:20;;;;;;;2.80;2.53;;;36.60;45.80;;;;;;5099743;28;20243;-82
2022/06/12 12:22:50;;;;;;;3.17;2.30;;;36.80;44.80;;;;;;5097305;28;20208;-81
2022/06/12 12:25:27;;;;;;;3.85;2.42;;;36.70;45.00;;;;;;5100404;28;20220;-81
2022/06/12 12:27:57;;;;;;;3.77;2.20;;;35.80;44.30;;;;;;5099996;28;20219;-82
2022/06/12 12:30:26;;;;;;;5.03;3.60;;;35.20;44.50;;;;;;5104074;28;20228;-81
2022/06/12 12:32:55;;;;;;;2.60;2.30;;;34.50;44.80;;;;;;5100107;28;20197;-82
2022/06/12 12:41:12;;;;;;;2.17;1.97;;;34.80;45.40;;;;;;5099109;28;20266;-82
2022/06/12 12:43:48;;;;;;;2.50;2.30;;;34.80;46.20;;;;;;5100163;28;20210;-82
2022/06/12 12:46:15;;;;;;;3.00;2.50;;;35.00;45.60;;;;;;5096996;28;20269;-82
2022/06/12 12:48:44;;;;;;;4.00;2.83;;;35.20;45.80;;;;;;5103214;28;20224;-81
2022/06/12 12:51:22;;;;;;;4.80;3.10;;;35.00;45.40;;;;;;5101281;28;20222;-82
2022/06/12 12:53:52;;;;;;;3.00;2.53;;;35.10;45.30;;;;;;5100895;28;20192;-81
2022/06/12 12:56:31;;;;;;;3.87;2.87;;;35.20;44.90;;;;;;5104296;28;20569;-81
2022/06/12 12:59:02;;;;;;;3.53;3.23;;;35.40;44.50;;;;;;5100657;28;20193;-81
2022/06/12 13:01:35;;;;;;;4.10;2.90;;;35.60;43.50;;;;;;5102087;28;20225;-82
2022/06/12 13:04:13;;;;;;;2.30;2.10;;;35.50;43.60;;;;;;5217572;22;21463;-81
2022/06/12 13:07:03;;;;;;;2.90;2.70;;;36.00;44.80;;;;;;5009528;28;20219;-81
2022/06/12 13:09:46;;;;;;;4.00;2.35;;;36.40;43.70;;;;;;5016874;28;20231;-82
2022/06/12 13:12:29;;;;;;;2.53;2.33;;;37.10;44.10;;;;;;5011917;28;20203;-82
2022/06/12 13:15:23;;;;;;;4.35;2.22;;;37.80;42.70;;;;;;5011605;28;20228;-82
2022/06/12 13:17:56;;;;;;;4.50;2.22;;;38.20;41.80;;;;;;5011019;28;20208;-82
2022/06/12 13:20:55;;;;;;;2.22;2.03;;;38.40;41.60;;;;;;5008965;28;20554;-80
2022/06/12 13:23:39;;;;;;;3.72;2.60;;;38.80;40.90;;;;;;4997077;28;20271;-80
2022/06/12 13:26:11;;;;;;;2.38;2.17;;;39.00;40.70;;;;;;5006152;28;20256;-80
2022/06/12 13:28:41;;;;;;;2.40;2.20;;;39.10;39.90;;;;;;5015712;28;20227;-80
2022/06/12 13:31:19;;;;;;;2.97;2.20;;;38.40;39.80;;;;;;5017042;28;20554;-80